Bernt Oskar — 3YCU — position and weather

sailwx.info

Track history (hours):
 
Tides and Currents Weather Stations Pressure Air Temp Water Temp Dewpoint Dewpoint Depression Visibility Wind Speed Wind Dir Waves Ship Positions

Bernt Oskar

Last reported at 2018-Feb-03 23:33 UTC. Time now 2018-Feb-23 23:45 UTC.
Position N 66°42' E 011°49'.
Warning: this ship's position is 20 days out of date.

Length 36 m.

Type: Fishing. MMSI: 259092000.

Date/timePositionNaut miles runAvg speedWind from/ knotsBaromVisibWave heightAir tempDewpointWater temp
2018-Feb-03 23:33N 66°42' E 011°49'0 9.1
2018-Feb-03 23:30N 66°42' E 011°49'4 8.6
2018-Feb-03 23:00N 66°38' E 011°44'4 8.3
2018-Feb-03 22:28N 66°34' E 011°41'19 3.5
2018-Feb-03 16:56N 66°15' E 011°29'4 4.7
2018-Feb-03 16:00N 66°19' E 011°34'0 0.8
2018-Feb-03 15:29N 66°18' E 011°34'0 0.7
2018-Feb-03 15:00N 66°18' E 011°35'0 0.7
2018-Feb-03 14:31N 66°18' E 011°35'0 0.9
2018-Feb-03 14:01N 66°17' E 011°36'0 0.8
2018-Feb-03 13:28N 66°17' E 011°36'0 0.7
2018-Feb-03 12:59N 66°17' E 011°36'1 0.8
2018-Feb-03 12:15N 66°16' E 011°36'0 0.9
2018-Feb-03 11:55N 66°16' E 011°36'1 1.0
2018-Feb-03 11:20N 66°15' E 011°35'0 1.0
2018-Feb-03 11:00N 66°15' E 011°35'2 0.4
2018-Feb-03 04:46N 66°16' E 011°30'7 9.3
2018-Feb-03 04:00N 66°23' E 011°36'4 9.0
2018-Feb-03 03:31N 66°27' E 011°39'5 3.3
2018-Feb-03 01:56N 66°32' E 011°43'0 0.6
2018-Feb-03 01:31N 66°32' E 011°43'0 0.8
2018-Feb-03 01:00N 66°32' E 011°43'0 0.1
2018-Feb-03 00:31N 66°32' E 011°43'1 2.1
2018-Feb-03 00:00N 66°33' E 011°42'1 1.1
2018-Feb-02 23:30N 66°32' E 011°42'1 1.3
2018-Feb-02 22:55N 66°31' E 011°43'0 0.5
2018-Feb-02 22:31N 66°31' E 011°43'0 0.5
2018-Feb-02 22:01N 66°31' E 011°43'3 5.2
2018-Feb-02 21:31N 66°33' E 011°44'4 8.5
2018-Feb-02 21:01N 66°38' E 011°44'4 8.0
2018-Feb-02 20:31N 66°42' E 011°46'1 0.1
2018-Feb-01 22:33N 66°42' E 011°49'5 9.6
2018-Feb-01 21:59N 66°37' E 011°45'3 5.5
2018-Feb-01 21:29N 66°34' E 011°44'2 1.1
2018-Feb-01 19:29N 66°32' E 011°44'0 0.4
2018-Feb-01 19:01N 66°32' E 011°44'1 1.5
2018-Feb-01 18:31N 66°32' E 011°42'3 6.2
2018-Feb-01 18:00N 66°33' E 011°35'1 1.1
2018-Feb-01 17:30N 66°33' E 011°36'0 0.7
2018-Feb-01 17:01N 66°33' E 011°35'0 0.5
2018-Feb-01 16:30N 66°33' E 011°35'2 3.1
2018-Feb-01 15:44N 66°32' E 011°30'1 4.8
2018-Feb-01 15:31N 66°33' E 011°29'3 6.1
2018-Feb-01 15:01N 66°35' E 011°25'4 3.0
2018-Feb-01 13:30N 66°39' E 011°32'2 2.5
2018-Feb-01 12:46N 66°40' E 011°30'3 2.2
2018-Feb-01 11:36N 66°43' E 011°26'1 0.9
2018-Feb-01 11:00N 66°42' E 011°27'1 1.2
2018-Feb-01 10:13N 66°41' E 011°28'0 1.3
2018-Feb-01 09:59N 66°41' E 011°28'1 1.2
2018-Feb-01 09:29N 66°40' E 011°28'1 1.0
2018-Feb-01 08:56N 66°40' E 011°28'1 1.0
2018-Feb-01 08:18N 66°39' E 011°29'1 1.1
2018-Feb-01 07:30N 66°38' E 011°29'1 2.3
2018-Feb-01 07:00N 66°38' E 011°27'3 4.6
2018-Feb-01 06:24N 66°40' E 011°23'  
Track history (hours):
 
Tides and Currents Weather Stations Pressure Air Temp Water Temp Dewpoint Dewpoint Depression Visibility Wind Speed Wind Dir Waves Ship Positions

Bernt Oskar

Last reported at 2018-Feb-03 23:33 UTC. Time now 2018-Feb-23 23:45 UTC.
Position N 66°42' E 011°49'.
Warning: this ship's position is 20 days out of date.

Length 36 m.

Type: Fishing. MMSI: 259092000.

Date/timePositionNaut miles runAvg speedWind from/ knotsBaromVisibWave heightAir tempDewpointWater temp
2018-Feb-03 23:33N 66°42' E 011°49'0 9.1
2018-Feb-03 23:30N 66°42' E 011°49'4 8.6
2018-Feb-03 23:00N 66°38' E 011°44'4 8.3
2018-Feb-03 22:28N 66°34' E 011°41'19 3.5
2018-Feb-03 16:56N 66°15' E 011°29'4 4.7
2018-Feb-03 16:00N 66°19' E 011°34'0 0.8
2018-Feb-03 15:29N 66°18' E 011°34'0 0.7
2018-Feb-03 15:00N 66°18' E 011°35'0 0.7
2018-Feb-03 14:31N 66°18' E 011°35'0 0.9
2018-Feb-03 14:01N 66°17' E 011°36'0 0.8
2018-Feb-03 13:28N 66°17' E 011°36'0 0.7
2018-Feb-03 12:59N 66°17' E 011°36'1 0.8
2018-Feb-03 12:15N 66°16' E 011°36'0 0.9
2018-Feb-03 11:55N 66°16' E 011°36'1 1.0
2018-Feb-03 11:20N 66°15' E 011°35'0 1.0
2018-Feb-03 11:00N 66°15' E 011°35'2 0.4
2018-Feb-03 04:46N 66°16' E 011°30'7 9.3
2018-Feb-03 04:00N 66°23' E 011°36'4 9.0
2018-Feb-03 03:31N 66°27' E 011°39'5 3.3
2018-Feb-03 01:56N 66°32' E 011°43'0 0.6
2018-Feb-03 01:31N 66°32' E 011°43'0 0.8
2018-Feb-03 01:00N 66°32' E 011°43'0 0.1
2018-Feb-03 00:31N 66°32' E 011°43'1 2.1
2018-Feb-03 00:00N 66°33' E 011°42'1 1.1
2018-Feb-02 23:30N 66°32' E 011°42'1 1.3
2018-Feb-02 22:55N 66°31' E 011°43'0 0.5
2018-Feb-02 22:31N 66°31' E 011°43'0 0.5
2018-Feb-02 22:01N 66°31' E 011°43'3 5.2
2018-Feb-02 21:31N 66°33' E 011°44'4 8.5
2018-Feb-02 21:01N 66°38' E 011°44'4 8.0
2018-Feb-02 20:31N 66°42' E 011°46'1 0.1
2018-Feb-01 22:33N 66°42' E 011°49'5 9.6
2018-Feb-01 21:59N 66°37' E 011°45'3 5.5
2018-Feb-01 21:29N 66°34' E 011°44'2 1.1
2018-Feb-01 19:29N 66°32' E 011°44'0 0.4
2018-Feb-01 19:01N 66°32' E 011°44'1 1.5
2018-Feb-01 18:31N 66°32' E 011°42'3 6.2
2018-Feb-01 18:00N 66°33' E 011°35'1 1.1
2018-Feb-01 17:30N 66°33' E 011°36'0 0.7
2018-Feb-01 17:01N 66°33' E 011°35'0 0.5
2018-Feb-01 16:30N 66°33' E 011°35'2 3.1
2018-Feb-01 15:44N 66°32' E 011°30'1 4.8
2018-Feb-01 15:31N 66°33' E 011°29'3 6.1
2018-Feb-01 15:01N 66°35' E 011°25'4 3.0
2018-Feb-01 13:30N 66°39' E 011°32'2 2.5
2018-Feb-01 12:46N 66°40' E 011°30'3 2.2
2018-Feb-01 11:36N 66°43' E 011°26'1 0.9
2018-Feb-01 11:00N 66°42' E 011°27'1 1.2
2018-Feb-01 10:13N 66°41' E 011°28'0 1.3
2018-Feb-01 09:59N 66°41' E 011°28'1 1.2
2018-Feb-01 09:29N 66°40' E 011°28'1 1.0
2018-Feb-01 08:56N 66°40' E 011°28'1 1.0
2018-Feb-01 08:18N 66°39' E 011°29'1 1.1
2018-Feb-01 07:30N 66°38' E 011°29'1 2.3
2018-Feb-01 07:00N 66°38' E 011°27'3 4.6
2018-Feb-01 06:24N 66°40' E 011°23'  

Dump ship's entire track history